Bachir Chihani — 7TJA — position and weather

sailwx.info

Track history (hours):
 
Tides and Currents Weather Stations Pressure Air Temp Water Temp Dewpoint Dewpoint Depression Visibility Wind Speed Wind Dir Waves Ship Positions

Bachir Chihani

Last reported at 2016-Aug-23 21:30 UTC. Time now 2016-Aug-24 16:14 UTC.
Position N 36°34' E 014°01'.

Length 280 m; draft 9.3 m.

Type: Ship (hazmat cat D). MMSI: 605106010.

Date/timePositionNaut miles runAvg speedWind from/ knotsBaromVisibWave heightAir tempDewpointWater temp
2016-Aug-23 21:30N 36°34' E 014°01'8 8.2
2016-Aug-23 20:32N 36°33' E 014°10'8 8.3
2016-Aug-23 19:33N 36°31' E 014°20'9 8.8
2016-Aug-23 18:33N 36°30' E 014°31'9 8.9
2016-Aug-23 17:33N 36°28' E 014°42'8 8.4
2016-Aug-23 16:33N 36°26' E 014°52'144 7.4
2016-Aug-22 21:09N 36°06' E 017°49'25 3.2
2016-Aug-22 13:33N 36°02' E 018°19'1 0.7
2016-Aug-22 12:22N 36°03' E 018°19'1 0.8
2016-Aug-22 11:32N 36°03' E 018°18'6 0.8
2016-Aug-22 04:22N 36°09' E 018°16'2 0.9
2016-Aug-22 02:33N 36°10' E 018°17'25711.1
2016-Aug-21 03:29N 36°26' E 023°35'1213.4
2016-Aug-21 02:33N 36°34' E 023°46'1413.4
2016-Aug-21 01:33N 36°44' E 023°58'5413.6
2016-Aug-20 21:33N 37°14' E 024°55'1413.6
2016-Aug-20 20:34N 37°17' E 025°11'1413.9
2016-Aug-20 19:34N 37°19' E 025°29'2411.3
2016-Aug-20 17:25N 37°40' E 025°43'  
2016-Aug-18 03:31N 39°54' E 025°54'7 7.2
2016-Aug-18 02:33N 39°48' E 025°50'14910.6
2016-Aug-17 12:34N 37°19' E 025°30'1414.2
2016-Aug-17 11:34N 37°17' E 025°12'1313.4
2016-Aug-17 10:33N 37°15' E 024°56'5413.5
2016-Aug-17 06:33N 36°45' E 023°58'1413.8
2016-Aug-17 05:34N 36°35' E 023°47'1414.0
2016-Aug-17 04:34N 36°25' E 023°35'1413.7
2016-Aug-17 03:33N 36°15' E 023°23'1413.7
2016-Aug-17 02:33N 36°06' E 023°10'36914.1
2016-Aug-16 00:21N 36°21' E 015°33'1114.3
2016-Aug-15 23:33N 36°21' E 015°19'1414.2
2016-Aug-15 22:32N 36°23' E 015°01'1414.1
2016-Aug-15 21:33N 36°23' E 014°44'1414.2
2016-Aug-15 20:33N 36°24' E 014°26'1414.2
2016-Aug-15 19:33N 36°25' E 014°09'1514.7
2016-Aug-15 18:34N 36°29' E 013°51'1514.6
2016-Aug-15 17:34N 36°31' E 013°34'1414.3
2016-Aug-15 16:33N 36°35' E 013°16'1414.1
2016-Aug-15 15:34N 36°39' E 012°59'1414.0
2016-Aug-15 14:34N 36°43' E 012°43'1413.7
2016-Aug-15 13:33N 36°49' E 012°27'1514.4
2016-Aug-15 12:32N 36°56' E 012°11'13114.0
2016-Aug-15 03:11N 37°29' E 009°32'2614.6
2016-Aug-15 01:23N 37°23' E 009°00'1214.1
2016-Aug-15 00:32N 37°20' E 008°45'1513.9
2016-Aug-14 23:26N 37°19' E 008°26'1213.6
2016-Aug-14 22:34N 37°19' E 008°11'1313.2
2016-Aug-14 21:32N 37°19' E 007°54'1313.2
2016-Aug-14 20:33N 37°18' E 007°38'8213.0
2016-Aug-14 14:14N 37°15' E 005°55'912.7
2016-Aug-14 13:32N 37°14' E 005°44'4013.4
2016-Aug-14 10:33N 37°09' E 004°54'1513.2
2016-Aug-14 09:23N 37°08' E 004°34'1113.2
2016-Aug-14 08:33N 37°07' E 004°21'1313.2
2016-Aug-14 07:32N 37°06' E 004°04'1513.9
2016-Aug-14 06:29N 37°04' E 003°46'5413.7
2016-Aug-14 02:31N 36°57' E 002°38'5813.4
2016-Aug-13 22:09N 36°46' E 001°27'813.7
2016-Aug-13 21:33N 36°44' E 001°17'  
Track history (hours):
 
Tides and Currents Weather Stations Pressure Air Temp Water Temp Dewpoint Dewpoint Depression Visibility Wind Speed Wind Dir Waves Ship Positions

Bachir Chihani

Last reported at 2016-Aug-23 21:30 UTC. Time now 2016-Aug-24 16:14 UTC.
Position N 36°34' E 014°01'.

Length 280 m; draft 9.3 m.

Type: Ship (hazmat cat D). MMSI: 605106010.

Date/timePositionNaut miles runAvg speedWind from/ knotsBaromVisibWave heightAir tempDewpointWater temp
2016-Aug-23 21:30N 36°34' E 014°01'8 8.2
2016-Aug-23 20:32N 36°33' E 014°10'8 8.3
2016-Aug-23 19:33N 36°31' E 014°20'9 8.8
2016-Aug-23 18:33N 36°30' E 014°31'9 8.9
2016-Aug-23 17:33N 36°28' E 014°42'8 8.4
2016-Aug-23 16:33N 36°26' E 014°52'144 7.4
2016-Aug-22 21:09N 36°06' E 017°49'25 3.2
2016-Aug-22 13:33N 36°02' E 018°19'1 0.7
2016-Aug-22 12:22N 36°03' E 018°19'1 0.8
2016-Aug-22 11:32N 36°03' E 018°18'6 0.8
2016-Aug-22 04:22N 36°09' E 018°16'2 0.9
2016-Aug-22 02:33N 36°10' E 018°17'25711.1
2016-Aug-21 03:29N 36°26' E 023°35'1213.4
2016-Aug-21 02:33N 36°34' E 023°46'1413.4
2016-Aug-21 01:33N 36°44' E 023°58'5413.6
2016-Aug-20 21:33N 37°14' E 024°55'1413.6
2016-Aug-20 20:34N 37°17' E 025°11'1413.9
2016-Aug-20 19:34N 37°19' E 025°29'2411.3
2016-Aug-20 17:25N 37°40' E 025°43'  
2016-Aug-18 03:31N 39°54' E 025°54'7 7.2
2016-Aug-18 02:33N 39°48' E 025°50'14910.6
2016-Aug-17 12:34N 37°19' E 025°30'1414.2
2016-Aug-17 11:34N 37°17' E 025°12'1313.4
2016-Aug-17 10:33N 37°15' E 024°56'5413.5
2016-Aug-17 06:33N 36°45' E 023°58'1413.8
2016-Aug-17 05:34N 36°35' E 023°47'1414.0
2016-Aug-17 04:34N 36°25' E 023°35'1413.7
2016-Aug-17 03:33N 36°15' E 023°23'1413.7
2016-Aug-17 02:33N 36°06' E 023°10'36914.1
2016-Aug-16 00:21N 36°21' E 015°33'1114.3
2016-Aug-15 23:33N 36°21' E 015°19'1414.2
2016-Aug-15 22:32N 36°23' E 015°01'1414.1
2016-Aug-15 21:33N 36°23' E 014°44'1414.2
2016-Aug-15 20:33N 36°24' E 014°26'1414.2
2016-Aug-15 19:33N 36°25' E 014°09'1514.7
2016-Aug-15 18:34N 36°29' E 013°51'1514.6
2016-Aug-15 17:34N 36°31' E 013°34'1414.3
2016-Aug-15 16:33N 36°35' E 013°16'1414.1
2016-Aug-15 15:34N 36°39' E 012°59'1414.0
2016-Aug-15 14:34N 36°43' E 012°43'1413.7
2016-Aug-15 13:33N 36°49' E 012°27'1514.4
2016-Aug-15 12:32N 36°56' E 012°11'13114.0
2016-Aug-15 03:11N 37°29' E 009°32'2614.6
2016-Aug-15 01:23N 37°23' E 009°00'1214.1
2016-Aug-15 00:32N 37°20' E 008°45'1513.9
2016-Aug-14 23:26N 37°19' E 008°26'1213.6
2016-Aug-14 22:34N 37°19' E 008°11'1313.2
2016-Aug-14 21:32N 37°19' E 007°54'1313.2
2016-Aug-14 20:33N 37°18' E 007°38'8213.0
2016-Aug-14 14:14N 37°15' E 005°55'912.7
2016-Aug-14 13:32N 37°14' E 005°44'4013.4
2016-Aug-14 10:33N 37°09' E 004°54'1513.2
2016-Aug-14 09:23N 37°08' E 004°34'1113.2
2016-Aug-14 08:33N 37°07' E 004°21'1313.2
2016-Aug-14 07:32N 37°06' E 004°04'1513.9
2016-Aug-14 06:29N 37°04' E 003°46'5413.7
2016-Aug-14 02:31N 36°57' E 002°38'5813.4
2016-Aug-13 22:09N 36°46' E 001°27'813.7
2016-Aug-13 21:33N 36°44' E 001°17'  

Dump ship's entire track history